sensor_id;sensor_type;location;lat;lon;timestamp;temperature;humidity
7159;DHT22;63175;52.374;13.132;2023-10-08T00:02:24;14.00;99.90
7159;DHT22;63175;52.374;13.132;2023-10-08T00:04:52;14.00;99.90
7159;DHT22;63175;52.374;13.132;2023-10-08T00:07:20;13.90;99.90
7159;DHT22;63175;52.374;13.132;2023-10-08T00:09:48;13.90;99.90
7159;DHT22;63175;52.374;13.132;2023-10-08T00:12:16;13.90;99.90
7159;DHT22;63175;52.374;13.132;2023-10-08T00:14:43;13.90;99.90
7159;DHT22;63175;52.374;13.132;2023-10-08T00:17:11;13.90;99.90
7159;DHT22;63175;52.374;13.132;2023-10-08T00:19:40;13.90;99.90
7159;DHT22;63175;52.374;13.132;2023-10-08T00:22:08;13.80;99.90
7159;DHT22;63175;52.374;13.132;2023-10-08T00:24:36;13.80;99.90
7159;DHT22;63175;52.374;13.132;2023-10-08T00:27:07;13.80;99.90
7159;DHT22;63175;52.374;13.132;2023-10-08T00:29:34;13.80;99.90
7159;DHT22;63175;52.374;13.132;2023-10-08T00:32:05;13.80;99.90
7159;DHT22;63175;52.374;13.132;2023-10-08T00:34:37;13.80;99.90
7159;DHT22;63175;52.374;13.132;2023-10-08T00:37:08;13.80;99.90
7159;DHT22;63175;52.374;13.132;2023-10-08T00:39:36;13.80;99.90
7159;DHT22;63175;52.374;13.132;2023-10-08T00:42:06;13.70;99.90
7159;DHT22;63175;52.374;13.132;2023-10-08T00:44:34;13.70;99.90
7159;DHT22;63175;52.374;13.132;2023-10-08T00:47:07;13.70;99.90
7159;DHT22;63175;52.374;13.132;2023-10-08T00:49:36;13.60;99.90
7159;DHT22;63175;52.374;13.132;2023-10-08T00:52:21;13.60;99.90
7159;DHT22;63175;52.374;13.132;2023-10-08T00:54:56;13.60;99.90
7159;DHT22;63175;52.374;13.132;2023-10-08T00:57:35;13.60;99.90
7159;DHT22;63175;52.374;13.132;2023-10-08T01:00:08;13.50;99.90
7159;DHT22;63175;52.374;13.132;2023-10-08T01:02:42;13.50;99.90
7159;DHT22;63175;52.374;13.132;2023-10-08T01:05:12;13.50;99.90
7159;DHT22;63175;52.374;13.132;2023-10-08T01:07:43;13.50;99.90
7159;DHT22;63175;52.374;13.132;2023-10-08T01:10:14;13.50;99.90
7159;DHT22;63175;52.374;13.132;2023-10-08T01:12:45;13.50;99.90
7159;DHT22;63175;52.374;13.132;2023-10-08T01:15:31;13.50;99.90
7159;DHT22;63175;52.374;13.132;2023-10-08T01:18:02;13.40;99.90
7159;DHT22;63175;52.374;13.132;2023-10-08T01:20:30;13.40;99.90
7159;DHT22;63175;52.374;13.132;2023-10-08T01:23:04;13.40;99.90
7159;DHT22;63175;52.374;13.132;2023-10-08T01:25:35;13.30;99.90
7159;DHT22;63175;52.374;13.132;2023-10-08T01:28:04;13.30;99.90
7159;DHT22;63175;52.374;13.132;2023-10-08T01:30:35;13.30;99.90
7159;DHT22;63175;52.374;13.132;2023-10-08T01:33:07;14.00;99.90
7159;DHT22;63175;52.374;13.132;2023-10-08T01:35:37;13.30;99.90
7159;DHT22;63175;52.374;13.132;2023-10-08T01:38:05;13.20;99.90
7159;DHT22;63175;52.374;13.132;2023-10-08T01:43:05;13.30;99.90
7159;DHT22;63175;52.374;13.132;2023-10-08T01:45:36;13.30;99.90
7159;DHT22;63175;52.374;13.132;2023-10-08T01:48:06;13.30;99.90
7159;DHT22;63175;52.374;13.132;2023-10-08T01:50:35;13.30;99.90
7159;DHT22;63175;52.374;13.132;2023-10-08T01:53:02;13.30;99.90
7159;DHT22;63175;52.374;13.132;2023-10-08T01:55:34;13.30;99.90
7159;DHT22;63175;52.374;13.132;2023-10-08T01:58:13;13.30;99.90
7159;DHT22;63175;52.374;13.132;2023-10-08T02:00:42;13.20;99.90
7159;DHT22;63175;52.374;13.132;2023-10-08T02:03:11;13.20;99.90
7159;DHT22;63175;52.374;13.132;2023-10-08T02:05:39;13.20;99.90
7159;DHT22;63175;52.374;13.132;2023-10-08T02:08:08;13.20;99.90
7159;DHT22;63175;52.374;13.132;2023-10-08T02:10:37;13.20;99.90
7159;DHT22;63175;52.374;13.132;2023-10-08T02:13:04;13.20;99.90
7159;DHT22;63175;52.374;13.132;2023-10-08T02:15:31;13.20;99.90
7159;DHT22;63175;52.374;13.132;2023-10-08T02:17:58;13.10;99.90
7159;DHT22;63175;52.374;13.132;2023-10-08T02:20:25;13.20;99.90
7159;DHT22;63175;52.374;13.132;2023-10-08T02:22:53;13.20;99.90
7159;DHT22;63175;52.374;13.132;2023-10-08T02:25:20;13.10;99.90
7159;DHT22;63175;52.374;13.132;2023-10-08T02:27:49;13.10;99.90
7159;DHT22;63175;52.374;13.132;2023-10-08T02:30:17;13.20;99.90
7159;DHT22;63175;52.374;13.132;2023-10-08T02:32:44;13.20;99.90
7159;DHT22;63175;52.374;13.132;2023-10-08T02:35:12;13.10;99.90
7159;DHT22;63175;52.374;13.132;2023-10-08T02:37:39;13.10;99.90
7159;DHT22;63175;52.374;13.132;2023-10-08T02:40:07;15.10;99.90
7159;DHT22;63175;52.374;13.132;2023-10-08T02:42:43;13.10;99.90
7159;DHT22;63175;52.374;13.132;2023-10-08T02:45:12;13.20;99.90
7159;DHT22;63175;52.374;13.132;2023-10-08T02:47:41;13.20;99.90
7159;DHT22;63175;52.374;13.132;2023-10-08T02:50:10;13.10;99.90
7159;DHT22;63175;52.374;13.132;2023-10-08T02:52:37;13.10;99.90
7159;DHT22;63175;52.374;13.132;2023-10-08T02:55:05;13.10;99.90
7159;DHT22;63175;52.374;13.132;2023-10-08T03:00:13;13.10;99.90
7159;DHT22;63175;52.374;13.132;2023-10-08T03:05:08;13.10;99.90
7159;DHT22;63175;52.374;13.132;2023-10-08T03:10:07;13.10;99.90
7159;DHT22;63175;52.374;13.132;2023-10-08T03:12:43;13.10;99.90
7159;DHT22;63175;52.374;13.132;2023-10-08T03:15:15;13.10;99.90
7159;DHT22;63175;52.374;13.132;2023-10-08T03:17:54;13.10;99.90
7159;DHT22;63175;52.374;13.132;2023-10-08T03:20:23;13.10;99.90
7159;DHT22;63175;52.374;13.132;2023-10-08T03:23:04;13.00;99.90
7159;DHT22;63175;52.374;13.132;2023-10-08T03:25:37;13.10;99.90
7159;DHT22;63175;52.374;13.132;2023-10-08T03:28:07;13.10;99.90
7159;DHT22;63175;52.374;13.132;2023-10-08T03:30:39;13.10;99.90
7159;DHT22;63175;52.374;13.132;2023-10-08T03:33:16;11.30;99.90
7159;DHT22;63175;52.374;13.132;2023-10-08T03:35:48;13.10;99.90
7159;DHT22;63175;52.374;13.132;2023-10-08T03:38:18;13.10;99.90
7159;DHT22;63175;52.374;13.132;2023-10-08T03:40:48;13.00;99.90
7159;DHT22;63175;52.374;13.132;2023-10-08T03:43:16;13.00;99.90
7159;DHT22;63175;52.374;13.132;2023-10-08T03:46:00;13.00;99.90
7159;DHT22;63175;52.374;13.132;2023-10-08T03:48:31;13.00;99.90
7159;DHT22;63175;52.374;13.132;2023-10-08T03:51:02;13.00;99.90
7159;DHT22;63175;52.374;13.132;2023-10-08T03:53:36;13.00;99.90
7159;DHT22;63175;52.374;13.132;2023-10-08T03:56:22;13.00;99.90
7159;DHT22;63175;52.374;13.132;2023-10-08T03:58:50;13.10;99.90
7159;DHT22;63175;52.374;13.132;2023-10-08T04:01:21;13.00;99.90
7159;DHT22;63175;52.374;13.132;2023-10-08T04:03:50;13.00;99.90
7159;DHT22;63175;52.374;13.132;2023-10-08T04:06:26;13.10;99.90
7159;DHT22;63175;52.374;13.132;2023-10-08T04:09:05;13.00;99.90
7159;DHT22;63175;52.374;13.132;2023-10-08T04:11:42;13.00;99.90
7159;DHT22;63175;52.374;13.132;2023-10-08T04:14:18;13.00;99.90
7159;DHT22;63175;52.374;13.132;2023-10-08T04:16:46;13.00;99.90
7159;DHT22;63175;52.374;13.132;2023-10-08T04:19:17;13.00;99.90
7159;DHT22;63175;52.374;13.132;2023-10-08T04:21:44;12.90;99.90
7159;DHT22;63175;52.374;13.132;2023-10-08T04:24:25;13.00;99.90
7159;DHT22;63175;52.374;13.132;2023-10-08T04:26:55;12.90;99.90
7159;DHT22;63175;52.374;13.132;2023-10-08T04:29:28;12.90;99.90
7159;DHT22;63175;52.374;13.132;2023-10-08T04:31:59;12.90;99.90
7159;DHT22;63175;52.374;13.132;2023-10-08T04:34:33;12.90;99.90
7159;DHT22;63175;52.374;13.132;2023-10-08T04:37:00;12.90;99.90
7159;DHT22;63175;52.374;13.132;2023-10-08T04:39:29;12.90;99.90
7159;DHT22;63175;52.374;13.132;2023-10-08T04:41:58;12.90;99.90
7159;DHT22;63175;52.374;13.132;2023-10-08T04:44:32;12.90;99.90
7159;DHT22;63175;52.374;13.132;2023-10-08T04:47:01;12.80;99.90
7159;DHT22;63175;52.374;13.132;2023-10-08T04:49:33;12.80;99.90
7159;DHT22;63175;52.374;13.132;2023-10-08T04:52:05;12.80;99.90
7159;DHT22;63175;52.374;13.132;2023-10-08T04:54:39;12.80;99.90
7159;DHT22;63175;52.374;13.132;2023-10-08T04:57:07;12.80;99.90
7159;DHT22;63175;52.374;13.132;2023-10-08T04:59:41;12.80;99.90
7159;DHT22;63175;52.374;13.132;2023-10-08T05:02:09;12.80;99.90
7159;DHT22;63175;52.374;13.132;2023-10-08T05:04:45;12.80;99.90
7159;DHT22;63175;52.374;13.132;2023-10-08T05:07:22;12.80;99.90
7159;DHT22;63175;52.374;13.132;2023-10-08T05:10:06;12.70;99.90
7159;DHT22;63175;52.374;13.132;2023-10-08T05:12:54;12.70;99.90
7159;DHT22;63175;52.374;13.132;2023-10-08T05:15:41;12.80;99.90
7159;DHT22;63175;52.374;13.132;2023-10-08T05:18:09;12.80;99.90
7159;DHT22;63175;52.374;13.132;2023-10-08T05:20:44;12.70;99.90
7159;DHT22;63175;52.374;13.132;2023-10-08T05:23:25;12.70;99.90
7159;DHT22;63175;52.374;13.132;2023-10-08T05:26:24;12.70;99.90
7159;DHT22;63175;52.374;13.132;2023-10-08T05:31:48;12.60;99.90
7159;DHT22;63175;52.374;13.132;2023-10-08T05:34:36;12.60;99.90
7159;DHT22;63175;52.374;13.132;2023-10-08T05:37:16;12.70;99.90
7159;DHT22;63175;52.374;13.132;2023-10-08T05:39:59;12.70;99.90
7159;DHT22;63175;52.374;13.132;2023-10-08T05:42:44;12.70;99.90
7159;DHT22;63175;52.374;13.132;2023-10-08T05:45:15;12.70;99.90
7159;DHT22;63175;52.374;13.132;2023-10-08T05:47:55;12.70;99.90
7159;DHT22;63175;52.374;13.132;2023-10-08T05:50:40;12.70;99.90
7159;DHT22;63175;52.374;13.132;2023-10-08T05:53:10;12.70;99.90
7159;DHT22;63175;52.374;13.132;2023-10-08T05:55:50;12.70;99.90
7159;DHT22;63175;52.374;13.132;2023-10-08T05:58:26;12.70;99.90
7159;DHT22;63175;52.374;13.132;2023-10-08T06:01:01;12.70;99.90
7159;DHT22;63175;52.374;13.132;2023-10-08T06:03:34;12.80;99.90
7159;DHT22;63175;52.374;13.132;2023-10-08T06:06:14;12.80;99.90
7159;DHT22;63175;52.374;13.132;2023-10-08T06:09:02;12.80;99.90
7159;DHT22;63175;52.374;13.132;2023-10-08T06:11:47;12.80;99.90
7159;DHT22;63175;52.374;13.132;2023-10-08T06:14:34;12.90;99.90
7159;DHT22;63175;52.374;13.132;2023-10-08T06:17:19;12.90;99.90
7159;DHT22;63175;52.374;13.132;2023-10-08T06:20:00;13.00;99.90
7159;DHT22;63175;52.374;13.132;2023-10-08T06:22:36;13.10;99.90
7159;DHT22;63175;52.374;13.132;2023-10-08T06:25:04;13.10;99.90
7159;DHT22;63175;52.374;13.132;2023-10-08T06:27:43;13.10;99.90
7159;DHT22;63175;52.374;13.132;2023-10-08T06:30:11;13.10;99.90
7159;DHT22;63175;52.374;13.132;2023-10-08T06:32:42;13.20;99.90
7159;DHT22;63175;52.374;13.132;2023-10-08T06:35:11;13.20;99.90
7159;DHT22;63175;52.374;13.132;2023-10-08T06:37:44;13.20;99.90
7159;DHT22;63175;52.374;13.132;2023-10-08T06:40:15;13.30;99.90
7159;DHT22;63175;52.374;13.132;2023-10-08T06:43:12;13.30;99.90
7159;DHT22;63175;52.374;13.132;2023-10-08T06:45:43;13.30;99.90
7159;DHT22;63175;52.374;13.132;2023-10-08T06:48:11;13.40;99.90
7159;DHT22;63175;52.374;13.132;2023-10-08T06:50:44;13.40;99.90
7159;DHT22;63175;52.374;13.132;2023-10-08T06:53:11;13.50;99.90
7159;DHT22;63175;52.374;13.132;2023-10-08T06:55:39;13.50;99.90
7159;DHT22;63175;52.374;13.132;2023-10-08T06:58:07;13.60;99.90
7159;DHT22;63175;52.374;13.132;2023-10-08T07:00:36;13.60;99.90
7159;DHT22;63175;52.374;13.132;2023-10-08T07:03:07;13.60;99.90
7159;DHT22;63175;52.374;13.132;2023-10-08T07:05:36;13.60;99.90
7159;DHT22;63175;52.374;13.132;2023-10-08T07:08:07;13.60;99.90
7159;DHT22;63175;52.374;13.132;2023-10-08T07:10:34;13.60;99.90
7159;DHT22;63175;52.374;13.132;2023-10-08T07:13:01;13.70;99.90
7159;DHT22;63175;52.374;13.132;2023-10-08T07:15:30;13.90;99.90
7159;DHT22;63175;52.374;13.132;2023-10-08T07:17:59;14.10;99.90
7159;DHT22;63175;52.374;13.132;2023-10-08T07:20:35;14.30;99.90
7159;DHT22;63175;52.374;13.132;2023-10-08T07:23:05;14.50;99.90
7159;DHT22;63175;52.374;13.132;2023-10-08T07:25:48;14.80;99.90
7159;DHT22;63175;52.374;13.132;2023-10-08T07:28:19;15.00;99.90
7159;DHT22;63175;52.374;13.132;2023-10-08T07:30:46;15.10;99.90
7159;DHT22;63175;52.374;13.132;2023-10-08T07:33:16;15.30;99.90
7159;DHT22;63175;52.374;13.132;2023-10-08T07:35:50;15.40;99.90
7159;DHT22;63175;52.374;13.132;2023-10-08T07:38:25;15.70;99.90
7159;DHT22;63175;52.374;13.132;2023-10-08T07:40:54;16.10;99.90
7159;DHT22;63175;52.374;13.132;2023-10-08T07:43:21;16.50;99.90
7159;DHT22;63175;52.374;13.132;2023-10-08T07:45:48;17.00;99.90
7159;DHT22;63175;52.374;13.132;2023-10-08T07:48:16;17.50;99.90
7159;DHT22;63175;52.374;13.132;2023-10-08T07:50:45;18.00;99.90
7159;DHT22;63175;52.374;13.132;2023-10-08T07:53:13;18.60;99.90
7159;DHT22;63175;52.374;13.132;2023-10-08T07:55:45;19.10;99.90
7159;DHT22;63175;52.374;13.132;2023-10-08T07:58:14;19.60;99.90
7159;DHT22;63175;52.374;13.132;2023-10-08T08:00:41;20.20;99.90
7159;DHT22;63175;52.374;13.132;2023-10-08T08:03:18;20.40;99.90
7159;DHT22;63175;52.374;13.132;2023-10-08T08:05:46;20.70;99.90
7159;DHT22;63175;52.374;13.132;2023-10-08T08:08:13;21.20;98.50
7159;DHT22;63175;52.374;13.132;2023-10-08T08:10:43;21.60;96.50
7159;DHT22;63175;52.374;13.132;2023-10-08T08:13:11;21.90;94.80
7159;DHT22;63175;52.374;13.132;2023-10-08T08:15:39;22.20;93.00
7159;DHT22;63175;52.374;13.132;2023-10-08T08:18:09;22.60;91.50
7159;DHT22;63175;52.374;13.132;2023-10-08T08:20:48;23.00;89.30
7159;DHT22;63175;52.374;13.132;2023-10-08T08:23:15;23.30;85.70
7159;DHT22;63175;52.374;13.132;2023-10-08T08:25:43;23.50;83.50
7159;DHT22;63175;52.374;13.132;2023-10-08T08:28:21;23.60;81.10
7159;DHT22;63175;52.374;13.132;2023-10-08T08:30:50;23.80;79.40
7159;DHT22;63175;52.374;13.132;2023-10-08T08:33:18;24.10;77.60
7159;DHT22;63175;52.374;13.132;2023-10-08T08:35:58;24.30;75.80
7159;DHT22;63175;52.374;13.132;2023-10-08T08:38:26;24.70;73.30
7159;DHT22;63175;52.374;13.132;2023-10-08T08:41:02;24.90;70.90
7159;DHT22;63175;52.374;13.132;2023-10-08T08:43:34;25.30;69.40
7159;DHT22;63175;52.374;13.132;2023-10-08T08:46:02;25.50;66.30
7159;DHT22;63175;52.374;13.132;2023-10-08T08:48:33;25.80;63.80
7159;DHT22;63175;52.374;13.132;2023-10-08T08:51:01;25.90;61.60
7159;DHT22;63175;52.374;13.132;2023-10-08T08:53:28;25.80;60.80
7159;DHT22;63175;52.374;13.132;2023-10-08T08:55:55;25.80;59.50
7159;DHT22;63175;52.374;13.132;2023-10-08T08:58:23;26.00;58.30
7159;DHT22;63175;52.374;13.132;2023-10-08T09:00:52;26.30;57.90
7159;DHT22;63175;52.374;13.132;2023-10-08T09:03:19;26.50;57.90
7159;DHT22;63175;52.374;13.132;2023-10-08T09:05:56;26.80;56.10
7159;DHT22;63175;52.374;13.132;2023-10-08T09:08:27;27.10;55.20
7159;DHT22;63175;52.374;13.132;2023-10-08T09:10:59;27.40;54.60
7159;DHT22;63175;52.374;13.132;2023-10-08T09:13:27;27.60;53.80
7159;DHT22;63175;52.374;13.132;2023-10-08T09:16:02;27.90;53.20
7159;DHT22;63175;52.374;13.132;2023-10-08T09:18:31;28.10;51.90
7159;DHT22;63175;52.374;13.132;2023-10-08T09:21:08;28.10;50.50
7159;DHT22;63175;52.374;13.132;2023-10-08T09:23:40;28.00;48.10
7159;DHT22;63175;52.374;13.132;2023-10-08T09:26:10;27.80;47.30
7159;DHT22;63175;52.374;13.132;2023-10-08T09:28:39;27.70;46.00
7159;DHT22;63175;52.374;13.132;2023-10-08T09:31:10;27.70;45.10
7159;DHT22;63175;52.374;13.132;2023-10-08T09:33:37;27.60;45.40
7159;DHT22;63175;52.374;13.132;2023-10-08T09:36:05;27.60;45.50
7159;DHT22;63175;52.374;13.132;2023-10-08T09:38:33;27.60;45.30
7159;DHT22;63175;52.374;13.132;2023-10-08T09:41:01;27.50;45.50
7159;DHT22;63175;52.374;13.132;2023-10-08T09:43:28;27.60;45.10
7159;DHT22;63175;52.374;13.132;2023-10-08T09:46:03;27.80;44.10
7159;DHT22;63175;52.374;13.132;2023-10-08T09:48:37;28.00;44.00
7159;DHT22;63175;52.374;13.132;2023-10-08T09:51:05;28.20;43.10
7159;DHT22;63175;52.374;13.132;2023-10-08T09:53:42;28.30;42.40
7159;DHT22;63175;52.374;13.132;2023-10-08T09:56:13;28.20;42.50
7159;DHT22;63175;52.374;13.132;2023-10-08T09:58:41;28.20;41.60
7159;DHT22;63175;52.374;13.132;2023-10-08T10:01:10;28.30;40.40
7159;DHT22;63175;52.374;13.132;2023-10-08T10:03:37;28.40;39.00
7159;DHT22;63175;52.374;13.132;2023-10-08T10:06:12;28.30;38.60
7159;DHT22;63175;52.374;13.132;2023-10-08T10:08:41;28.40;38.40
7159;DHT22;63175;52.374;13.132;2023-10-08T10:11:08;28.40;37.90
7159;DHT22;63175;52.374;13.132;2023-10-08T10:13:41;28.50;37.70
7159;DHT22;63175;52.374;13.132;2023-10-08T10:16:10;28.70;36.90
7159;DHT22;63175;52.374;13.132;2023-10-08T10:18:39;28.70;36.90
7159;DHT22;63175;52.374;13.132;2023-10-08T10:21:28;28.90;36.00
7159;DHT22;63175;52.374;13.132;2023-10-08T10:23:55;29.20;35.70
7159;DHT22;63175;52.374;13.132;2023-10-08T10:26:27;29.30;35.70
7159;DHT22;63175;52.374;13.132;2023-10-08T10:29:18;29.60;35.90
7159;DHT22;63175;52.374;13.132;2023-10-08T10:31:47;29.80;35.20
7159;DHT22;63175;52.374;13.132;2023-10-08T10:34:16;29.70;34.70
7159;DHT22;63175;52.374;13.132;2023-10-08T10:36:44;29.70;34.70
7159;DHT22;63175;52.374;13.132;2023-10-08T10:39:15;29.90;34.80
7159;DHT22;63175;52.374;13.132;2023-10-08T10:41:44;30.00;34.70
7159;DHT22;63175;52.374;13.132;2023-10-08T10:44:11;30.20;34.90
7159;DHT22;63175;52.374;13.132;2023-10-08T10:46:41;30.40;34.70
7159;DHT22;63175;52.374;13.132;2023-10-08T10:49:08;30.70;33.80
7159;DHT22;63175;52.374;13.132;2023-10-08T10:51:44;30.90;33.70
7159;DHT22;63175;52.374;13.132;2023-10-08T10:54:12;31.10;34.00
7159;DHT22;63175;52.374;13.132;2023-10-08T10:56:45;31.40;33.40
7159;DHT22;63175;52.374;13.132;2023-10-08T10:59:13;31.40;32.10
7159;DHT22;63175;52.374;13.132;2023-10-08T11:01:46;31.50;32.60
7159;DHT22;63175;52.374;13.132;2023-10-08T11:04:18;31.30;32.10
7159;DHT22;63175;52.374;13.132;2023-10-08T11:06:55;31.20;32.70
7159;DHT22;63175;52.374;13.132;2023-10-08T11:09:24;31.80;31.10
7159;DHT22;63175;52.374;13.132;2023-10-08T11:12:02;31.90;31.60
7159;DHT22;63175;52.374;13.132;2023-10-08T11:14:37;32.00;30.70
7159;DHT22;63175;52.374;13.132;2023-10-08T11:17:11;32.20;30.90
7159;DHT22;63175;52.374;13.132;2023-10-08T11:19:38;32.60;31.10
7159;DHT22;63175;52.374;13.132;2023-10-08T11:22:08;33.00;30.90
7159;DHT22;63175;52.374;13.132;2023-10-08T11:24:42;33.30;30.30
7159;DHT22;63175;52.374;13.132;2023-10-08T11:27:13;33.30;30.00
7159;DHT22;63175;52.374;13.132;2023-10-08T11:29:45;33.20;29.00
7159;DHT22;63175;52.374;13.132;2023-10-08T11:32:15;33.30;28.80
7159;DHT22;63175;52.374;13.132;2023-10-08T11:34:45;33.90;28.60
7159;DHT22;63175;52.374;13.132;2023-10-08T11:37:16;34.20;27.90
7159;DHT22;63175;52.374;13.132;2023-10-08T11:39:52;33.90;28.50
7159;DHT22;63175;52.374;13.132;2023-10-08T11:42:23;34.30;28.50
7159;DHT22;63175;52.374;13.132;2023-10-08T11:45:07;34.90;27.80
7159;DHT22;63175;52.374;13.132;2023-10-08T11:47:51;34.50;27.50
7159;DHT22;63175;52.374;13.132;2023-10-08T11:50:23;34.70;27.50
7159;DHT22;63175;52.374;13.132;2023-10-08T11:52:59;35.10;27.20
7159;DHT22;63175;52.374;13.132;2023-10-08T11:55:32;34.80;26.60
7159;DHT22;63175;52.374;13.132;2023-10-08T11:58:01;34.30;26.80
7159;DHT22;63175;52.374;13.132;2023-10-08T12:00:36;34.20;27.40
7159;DHT22;63175;52.374;13.132;2023-10-08T12:03:11;34.40;27.50
7159;DHT22;63175;52.374;13.132;2023-10-08T12:05:38;34.80;26.90
7159;DHT22;63175;52.374;13.132;2023-10-08T12:08:13;35.00;26.60
7159;DHT22;63175;52.374;13.132;2023-10-08T12:10:40;34.70;26.90
7159;DHT22;63175;52.374;13.132;2023-10-08T12:13:08;33.70;26.60
7159;DHT22;63175;52.374;13.132;2023-10-08T12:15:36;32.60;27.20
7159;DHT22;63175;52.374;13.132;2023-10-08T12:18:05;31.30;28.30
7159;DHT22;63175;52.374;13.132;2023-10-08T12:20:40;30.40;29.30
7159;DHT22;63175;52.374;13.132;2023-10-08T12:23:10;29.80;30.20
7159;DHT22;63175;52.374;13.132;2023-10-08T12:25:39;29.40;30.50
7159;DHT22;63175;52.374;13.132;2023-10-08T12:28:11;29.00;30.40
7159;DHT22;63175;52.374;13.132;2023-10-08T12:30:40;28.70;30.50
7159;DHT22;63175;52.374;13.132;2023-10-08T12:33:08;28.20;30.50
7159;DHT22;63175;52.374;13.132;2023-10-08T12:35:40;27.60;31.00
7159;DHT22;63175;52.374;13.132;2023-10-08T12:38:06;27.20;31.90
7159;DHT22;63175;52.374;13.132;2023-10-08T12:40:34;26.80;32.40
7159;DHT22;63175;52.374;13.132;2023-10-08T12:43:13;26.40;32.80
7159;DHT22;63175;52.374;13.132;2023-10-08T12:45:45;26.00;33.50
7159;DHT22;63175;52.374;13.132;2023-10-08T12:48:18;25.50;33.90
7159;DHT22;63175;52.374;13.132;2023-10-08T12:50:46;25.10;34.60
7159;DHT22;63175;52.374;13.132;2023-10-08T12:53:20;25.00;35.30
7159;DHT22;63175;52.374;13.132;2023-10-08T12:55:50;24.90;35.40
7159;DHT22;63175;52.374;13.132;2023-10-08T12:58:19;24.90;34.80
7159;DHT22;63175;52.374;13.132;2023-10-08T13:00:51;25.00;34.70
7159;DHT22;63175;52.374;13.132;2023-10-08T13:03:23;25.10;35.10
7159;DHT22;63175;52.374;13.132;2023-10-08T13:05:52;25.30;35.10
7159;DHT22;63175;52.374;13.132;2023-10-08T13:08:19;25.40;35.00
7159;DHT22;63175;52.374;13.132;2023-10-08T13:10:47;25.60;34.60
7159;DHT22;63175;52.374;13.132;2023-10-08T13:13:13;25.50;34.40
7159;DHT22;63175;52.374;13.132;2023-10-08T13:15:41;25.50;34.50
7159;DHT22;63175;52.374;13.132;2023-10-08T13:18:08;25.50;34.80
7159;DHT22;63175;52.374;13.132;2023-10-08T13:20:35;25.50;35.00
7159;DHT22;63175;52.374;13.132;2023-10-08T13:23:07;25.40;34.60
7159;DHT22;63175;52.374;13.132;2023-10-08T13:25:35;25.30;34.10
7159;DHT22;63175;52.374;13.132;2023-10-08T13:28:05;25.30;34.40
7159;DHT22;63175;52.374;13.132;2023-10-08T13:30:33;25.20;34.80
7159;DHT22;63175;52.374;13.132;2023-10-08T13:33:00;25.20;35.00
7159;DHT22;63175;52.374;13.132;2023-10-08T13:35:26;25.30;35.10
7159;DHT22;63175;52.374;13.132;2023-10-08T13:37:53;25.30;35.00
7159;DHT22;63175;52.374;13.132;2023-10-08T13:40:23;25.10;35.20
7159;DHT22;63175;52.374;13.132;2023-10-08T13:42:58;24.90;35.10
7159;DHT22;63175;52.374;13.132;2023-10-08T13:45:25;24.70;35.20
7159;DHT22;63175;52.374;13.132;2023-10-08T13:47:54;24.60;35.40
7159;DHT22;63175;52.374;13.132;2023-10-08T13:50:25;24.50;35.60
7159;DHT22;63175;52.374;13.132;2023-10-08T13:52:56;24.40;35.40
7159;DHT22;63175;52.374;13.132;2023-10-08T13:55:24;24.30;35.40
7159;DHT22;63175;52.374;13.132;2023-10-08T13:57:51;24.20;36.00
7159;DHT22;63175;52.374;13.132;2023-10-08T14:00:18;24.00;36.30
7159;DHT22;63175;52.374;13.132;2023-10-08T14:02:51;24.00;36.80
7159;DHT22;63175;52.374;13.132;2023-10-08T14:05:18;23.90;36.90
7159;DHT22;63175;52.374;13.132;2023-10-08T14:07:49;23.90;36.70
7159;DHT22;63175;52.374;13.132;2023-10-08T14:10:17;23.80;37.10
7159;DHT22;63175;52.374;13.132;2023-10-08T14:12:46;23.60;37.10
7159;DHT22;63175;52.374;13.132;2023-10-08T14:15:16;23.40;37.20
7159;DHT22;63175;52.374;13.132;2023-10-08T14:17:44;23.10;37.50
7159;DHT22;63175;52.374;13.132;2023-10-08T14:20:14;22.90;38.20
7159;DHT22;63175;52.374;13.132;2023-10-08T14:22:47;22.70;38.60
7159;DHT22;63175;52.374;13.132;2023-10-08T14:25:23;21.90;38.30
7159;DHT22;63175;52.374;13.132;2023-10-08T14:27:54;22.20;39.20
7159;DHT22;63175;52.374;13.132;2023-10-08T14:30:30;21.90;39.50
7159;DHT22;63175;52.374;13.132;2023-10-08T14:32:58;21.70;39.60
7159;DHT22;63175;52.374;13.132;2023-10-08T14:35:26;21.50;40.20
7159;DHT22;63175;52.374;13.132;2023-10-08T14:38:10;21.30;40.80
7159;DHT22;63175;52.374;13.132;2023-10-08T14:40:55;21.00;41.50
7159;DHT22;63175;52.374;13.132;2023-10-08T14:43:40;20.80;41.80
7159;DHT22;63175;52.374;13.132;2023-10-08T14:46:08;20.60;41.70
7159;DHT22;63175;52.374;13.132;2023-10-08T14:48:37;20.40;41.70
7159;DHT22;63175;52.374;13.132;2023-10-08T14:51:06;20.20;41.90
7159;DHT22;63175;52.374;13.132;2023-10-08T14:53:33;20.00;42.20
7159;DHT22;63175;52.374;13.132;2023-10-08T14:56:04;19.90;42.70
7159;DHT22;63175;52.374;13.132;2023-10-08T14:58:31;19.70;43.30
7159;DHT22;63175;52.374;13.132;2023-10-08T15:01:00;19.60;43.70
7159;DHT22;63175;52.374;13.132;2023-10-08T15:03:27;19.40;43.90
7159;DHT22;63175;52.374;13.132;2023-10-08T15:05:54;19.30;44.30
7159;DHT22;63175;52.374;13.132;2023-10-08T15:08:22;19.10;44.50
7159;DHT22;63175;52.374;13.132;2023-10-08T15:10:49;19.00;45.00
7159;DHT22;63175;52.374;13.132;2023-10-08T15:13:16;18.90;45.10
7159;DHT22;63175;52.374;13.132;2023-10-08T15:15:43;18.80;45.30
7159;DHT22;63175;52.374;13.132;2023-10-08T15:18:11;18.70;45.60
7159;DHT22;63175;52.374;13.132;2023-10-08T15:20:39;18.60;46.10
7159;DHT22;63175;52.374;13.132;2023-10-08T15:23:06;18.50;46.50
7159;DHT22;63175;52.374;13.132;2023-10-08T15:25:37;18.40;47.00
7159;DHT22;63175;52.374;13.132;2023-10-08T15:28:04;18.40;47.70
7159;DHT22;63175;52.374;13.132;2023-10-08T15:30:31;18.30;48.40
7159;DHT22;63175;52.374;13.132;2023-10-08T15:32:59;18.20;49.10
7159;DHT22;63175;52.374;13.132;2023-10-08T15:35:27;16.80;48.40
7159;DHT22;63175;52.374;13.132;2023-10-08T15:37:54;18.00;49.50
7159;DHT22;63175;52.374;13.132;2023-10-08T15:40:21;17.90;50.00
7159;DHT22;63175;52.374;13.132;2023-10-08T15:42:49;17.80;50.30
7159;DHT22;63175;52.374;13.132;2023-10-08T15:45:17;17.80;50.40
7159;DHT22;63175;52.374;13.132;2023-10-08T15:47:44;17.70;50.70
7159;DHT22;63175;52.374;13.132;2023-10-08T15:50:11;17.70;51.00
7159;DHT22;63175;52.374;13.132;2023-10-08T15:52:39;17.60;51.40
7159;DHT22;63175;52.374;13.132;2023-10-08T15:55:07;17.50;51.40
7159;DHT22;63175;52.374;13.132;2023-10-08T15:57:36;17.40;51.80
7159;DHT22;63175;52.374;13.132;2023-10-08T16:00:04;17.40;51.80
7159;DHT22;63175;52.374;13.132;2023-10-08T16:02:31;17.40;51.70
7159;DHT22;63175;52.374;13.132;2023-10-08T16:04:58;17.30;51.60
7159;DHT22;63175;52.374;13.132;2023-10-08T16:07:25;17.30;52.20
7159;DHT22;63175;52.374;13.132;2023-10-08T16:09:53;17.30;52.70